• Join FlightAware (Why Join?)
  • Login
  • US Flag 
05:09PM EDT


 

Airport Tracker/Info


-or-


 

Live Flight TrackerFlight Track Log ✈ N789EX ✈ 22-Apr-2014 ✈ KCOS - KBFI

Flight Track Log - Related Links

Times and Time Zones

All times are in EDT time to prevent confusion due to time zone crossing. See the N789EX flight status page for this flight to view local times or setup timezone preferences in your user account.

Time Position Orientation Groundspeed Altitude Reporting Facility
EDT Latitude Longitude Course Direction KTS MPH feet Rate Location/Type
06:52PM 38.7444 -104.6849 170° South 207 238 8,100  Level FlightAware ADS-B (KFLY)
06:52PM 38.7314 -104.6745 127° Southeast 234 269 8,200 780 Climbing FlightAware ADS-B (KFLY)
06:52PM 38.7260 -104.6445 87° East 261 300 8,600 900 Climbing FlightAware ADS-B (KFLY)
06:53PM 38.7278 -104.6183 74° East 284 327 8,800 960 Climbing FlightAware ADS-B (KFLY)
06:53PM 38.7431 -104.5812 39° Northeast 308 354 9,300 1,980 Climbing FlightAware ADS-B (KFLY)
06:53PM 38.7655 -104.5684 North 313 360 10,300 2,820 Climbing FlightAware ADS-B (KFLY)
06:54PM 38.7956 -104.5664 North 325 374 11,100 2,160 Climbing FlightAware ADS-B (KFLY)
06:54PM 38.8171 -104.5651 359° North 349 402 11,800 1,920 Climbing FlightAware ADS-B (KFLY)
06:55PM 38.8934 -104.5672 357° North 382 440 13,100 2,520 Climbing FlightAware ADS-B (KFLY)
06:55PM 38.9619 -104.5712 357° North 384 442 15,200 2,280 Climbing FlightAware ADS-B (KFLY)
06:56PM 39.0294 -104.5759 357° North 390 449 16,100 1,800 Climbing FlightAware ADS-B (KEIK)
06:57PM 39.0878 -104.5797 357° North 392 451 17,400 2,340 Climbing FlightAware ADS-B (KBJC)
06:57PM 39.1704 -104.5858 357° North 404 465 19,000 2,460 Climbing FlightAware ADS-B (KEIK)
06:58PM 39.2435 -104.5913 351° North 412 474 20,600 2,520 Climbing FlightAware ADS-B (KEIK)
06:58PM 39.2620 -104.5969 340° North 409 471 21,100 2,220 Climbing FlightAware ADS-B (KEIK)
06:58PM 39.2941 -104.6208 319° Northwest 405 466 21,700 1,560 Climbing FlightAware ADS-B (KFLY)
06:58PM 39.2982 -104.6257 321° Northwest 405 466 21,800 1,980 Climbing FlightAware ADS-B (KBJC)
06:59PM 39.3134 -104.6510 300° West 396 456 22,300 2,040 Climbing FlightAware ADS-B (KEIK)
06:59PM 39.3385 -104.7145 297° West 407 468 23,400 1,800 Climbing FlightAware ADS-B (KBJC)
07:00PM 39.3707 -104.7958 297° West 415 478 24,400 2,040 Climbing FlightAware ADS-B (KCOS)
07:00PM 39.4028 -104.8771 297° West 416 479 25,700 2,220 Climbing FlightAware ADS-B (KFLY)
07:01PM 39.4166 -104.9121 297° West 417 480 27,000 2,160 Climbing FlightAware ADS-B (KEIK)
07:01PM 39.4589 -105.0205 297° West 418 481 28,100 2,100 Climbing FlightAware ADS-B (KEIK)
07:02PM 39.4837 -105.0835 297° West 421 484 29,100 2,280 Climbing FlightAware ADS-B (KEIK)
07:02PM 39.4988 -105.1222 297° West 426 490 30,000 1,500 Climbing FlightAware ADS-B (KCOS)
07:03PM 39.5376 -105.2221 297° West 430 495 30,700 1,080 Climbing FlightAware ADS-B (KBJC)
07:04PM 39.5640 -105.2898 297° West 433 498 31,400 1,260 Climbing FlightAware ADS-B (KBJC)
07:04PM 39.5978 -105.3770 296° West 436 502 32,200 1,200 Climbing FlightAware ADS-B (KEIK)
07:05PM 39.6322 -105.4665 297° West 438 504 32,800 1,140 Climbing FlightAware ADS-B (KFLY)
07:05PM 39.6598 -105.5375 297° West 441 507 33,400 1,020 Climbing FlightAware ADS-B (KBJC)
07:06PM 39.7014 -105.6461 296° West 447 514 34,100 1,020 Climbing FlightAware ADS-B (KEIK)
07:06PM 39.7296 -105.7198 296° West 451 519 34,700 900 Climbing FlightAware ADS-B (KBJC)
07:07PM 39.7584 -105.7950 296° West 453 521 35,100 1,260 Climbing FlightAware ADS-B (KBJC)
07:08PM 39.7930 -105.8859 296° West 447 514 36,100 1,260 Climbing FlightAware ADS-B (KBJC)
07:08PM 39.8102 -105.9312 296° West 448 516 36,500 840 Climbing FlightAware ADS-B (KBJC)
07:09PM 39.8492 -106.0340 296° West 448 516 37,000 960 Climbing FlightAware ADS-B (KBJC)
07:09PM 39.8694 -106.0874 296° West 444 511 37,600 1,080 Climbing FlightAware ADS-B (KEIK)
07:10PM 39.9060 -106.1846 296° West 435 501 38,500 600 Climbing FlightAware ADS-B (KBJC)
07:10PM 39.9486 -106.2981 296° West 441 507 38,400 180 Descending FlightAware ADS-B (KEGE)
07:11PM 39.9728 -106.3627 296° West 439 505 38,700 540 Climbing FlightAware ADS-B (KEGE)
07:11PM 39.9851 -106.3955 296° West 439 505 38,800 420 Climbing FlightAware ADS-B (KBJC)
07:12PM 40.0178 -106.4663 306° West 450 518 39,000 540 Climbing FlightAware ADS-B (KBDG)
07:12PM 40.0567 -106.5316 309° West 450 518 39,400 600 Climbing FlightAware ADS-B (KEIK)
07:13PM 40.0451 -106.5124 308° West 447 514 39,800 420 Climbing FlightAware ADS-B (KBJC)
07:14PM 40.1192 -106.6347 308° West 447 514 40,000 120 Climbing FlightAware ADS-B (KBJC)
07:14PM 40.2104 -106.7858 308° West 445 512 40,000  Level FlightAware ADS-B (KEIK)
07:15PM 40.2523 -106.8558 308° West 448 516 40,000  Level FlightAware ADS-B (KEIK)
07:15PM 40.2874 -106.9142 308° West 450 518 40,000  Level FlightAware ADS-B (KEIK)
07:16PM 40.3345 -106.9929 308° West 450 518 40,000  Level FlightAware ADS-B (KEIK)
07:16PM 40.3748 -107.0605 308° West 448 516 40,000  Level FlightAware ADS-B (KEIK)
07:17PM 40.4110 -107.1209 308° West 447 514 40,000  Level FlightAware ADS-B (KMTJ)
07:17PM 40.4532 -107.1920 308° West 445 512 40,000  Level FlightAware ADS-B (KMTJ)
07:18PM 40.4848 -107.2452 308° West 446 513 40,000  Level FlightAware ADS-B (KMTJ)
07:18PM 40.5304 -107.3223 308° West 451 519 40,000  Level FlightAware ADS-B (KMTJ)
07:19PM 40.5668 -107.3792 311° West 455 524 40,000  Level FlightAware ADS-B (KMTJ)
07:20PM 40.6163 -107.4549 311° West 456 525 40,000  Level FlightAware ADS-B (KMTJ)
07:20PM 40.6780 -107.5503 310° West 457 526 40,000  Level FlightAware ADS-B (KMTJ)
07:21PM 40.7181 -107.6136 310° West 459 528 40,000  Level FlightAware ADS-B (KMTJ)
07:21PM 40.7579 -107.6763 310° West 459 528 40,000  Level FlightAware ADS-B (KMTJ)
07:22PM 40.8022 -107.7463 310° West 455 524 40,000  Level FlightAware ADS-B (KMTJ)
07:22PM 40.8342 -107.7969 310° West 454 522 40,000  Level FlightAware ADS-B (KMTJ)
07:23PM 40.9325 -107.9529 310° West 455 524 40,000  Level FlightAware ADS-B (KBDG)
07:24PM 40.9962 -108.0538 310° West 456 525 40,000  Level FlightAware ADS-B (KMTJ)
07:24PM 41.0021 -108.0633 310° West 455 524 40,000  Level FlightAware ADS-B (KMTJ)
07:27PM 41.1950 -108.3723 309° West 452 520 40,000  Level FlightAware ADS-B (KBDG)
07:28PM 41.2788 -108.5079 309° West 456 525 40,000  Level FlightAware ADS-B (KBDG)
07:28PM 41.3387 -108.6050 309° West 466 536 40,000  Level FlightAware ADS-B (KBDG)
07:32PM 41.6067 -109.0600 297° West 447 514 40,000  Level FlightAware ADS-B (KBDG)
07:33PM 41.6657 -109.2175 296° West 445 512 40,000  Level FlightAware ADS-B (KBDG)
07:34PM 41.7115 -109.3406 296° West 445 512 40,000  Level FlightAware ADS-B (KBDG)
07:35PM 41.7800 -109.5256 296° West 450 518 40,000  Level FlightAware ADS-B (KBDG)
07:36PM 41.8310 -109.6643 296° West 456 525 40,000  Level FlightAware ADS-B (KBDG)
07:37PM 41.9077 -109.8743 296° West 461 531 40,000  Level FlightAware ADS-B (KBDG)
07:40PM 42.0497 -110.2671 296° West 460 529 40,000  Level FlightAware ADS-B (KBDG)
07:42PM 42.1492 -110.5431 296° West 459 528 40,000  Level Salt Lake Center
07:43PM 42.2106 -110.7175 295° West 461 531 40,000  Level Salt Lake Center
07:49PM 42.5268 -111.6286 295° West 463 533 40,000  Level FlightAware ADS-B (KBTF)
07:49PM 42.5724 -111.7623 295° West 467 537 40,000  Level FlightAware ADS-B (KBTF)
07:50PM 42.6191 -111.8996 294° West 469 540 40,000  Level FlightAware ADS-B (KBTF)
07:51PM 42.6558 -112.0088 294° West 471 542 40,000  Level FlightAware ADS-B (KBTF)
07:52PM 42.6934 -112.1191 295° West 473 544 40,000  Level FlightAware ADS-B (KBTF)
07:52PM 42.7292 -112.2260 294° West 470 541 40,000  Level FlightAware ADS-B (KBTF)
07:53PM 42.7703 -112.3503 294° West 476 548 40,000  Level FlightAware ADS-B (KBTF)
07:54PM 42.8084 -112.4654 294° West 480 552 40,000  Level FlightAware ADS-B (KBTF)
07:54PM 42.8416 -112.5654 294° West 479 551 40,000  Level FlightAware ADS-B (KBTF)
07:55PM 42.8885 -112.6827 304° West 491 565 40,000  Level FlightAware ADS-B (KBTF)
07:56PM 42.9437 -112.7818 307° West 489 563 40,000  Level FlightAware ADS-B (KBTF)
07:56PM 42.9999 -112.8813 307° West 490 564 40,000  Level FlightAware ADS-B (KBTF)
07:57PM 43.0549 -112.9797 307° West 502 578 40,000  Level FlightAware ADS-B (KBTF)
07:58PM 43.1124 -113.0823 307° West 504 580 40,000  Level FlightAware ADS-B (KBTF)
07:58PM 43.1658 -113.1782 307° West 501 577 40,000  Level FlightAware ADS-B (KBTF)
08:00PM 43.3027 -113.4253 307° West 503 579 40,000  Level FlightAware ADS-B (KBTF)
08:01PM 43.3642 -113.5369 307° West 502 578 40,000  Level FlightAware ADS-B (KBTF)
08:01PM 43.4202 -113.6389 307° West 505 581 40,000  Level FlightAware ADS-B (KBTF)
08:02PM 43.4753 -113.7394 306° West 497 572 40,000  Level FlightAware ADS-B (KBTF)
08:03PM 43.5310 -113.8417 306° West 495 570 40,000  Level FlightAware ADS-B (KBTF)
08:03PM 43.5868 -113.9442 306° West 492 566 40,000  Level FlightAware ADS-B (KBTF)
08:04PM 43.6408 -114.0442 307° West 494 568 40,000  Level FlightAware ADS-B (KBTF)
08:05PM 43.6966 -114.1478 306° West 494 568 40,000  Level FlightAware ADS-B (KBTF)
08:05PM 43.7507 -114.2482 306° West 497 572 40,000  Level FlightAware ADS-B (KBTF)
08:06PM 43.8068 -114.3526 306° West 496 571 40,000  Level FlightAware ADS-B (KBTF)
08:07PM 43.8610 -114.4542 306° West 499 574 40,000  Level FlightAware ADS-B (KBTF)
08:07PM 43.9177 -114.5610 306° West 503 579 40,000  Level FlightAware ADS-B (KBTF)
08:08PM 43.9727 -114.6646 306° West 503 579 40,000  Level FlightAware ADS-B (KBTF)
08:09PM 44.0266 -114.7668 305° West 502 578 40,000  Level FlightAware ADS-B (KBTF)
08:10PM 44.0858 -114.8797 305° West 506 582 40,000  Level Salt Lake Center
08:11PM 44.1683 -115.0367 306° West 505 581 40,000  Level Salt Lake Center
08:12PM 44.2506 -115.1939 306° West 505 581 40,000  Level Salt Lake Center
08:13PM 44.3319 -115.3514 306° West 505 581 40,000  Level Salt Lake Center
08:14PM 44.4139 -115.5094 306° West 505 581 40,000  Level Salt Lake Center
08:15PM 44.5108 -115.6992 306° West 505 581 40,000  Level Salt Lake Center
08:16PM 44.5900 -115.8550 306° West 503 579 40,000  Level Salt Lake Center
08:17PM 44.6692 -116.0114 305° West 503 579 40,000  Level Salt Lake Center
08:18PM 44.7322 -116.1389 305° West 502 578 40,000  Level Seattle Center
08:19PM 44.8036 -116.3050 301° West 502 578 40,000  Level Seattle Center
08:20PM 44.8892 -116.5475 297° West 502 578 40,000  Level Salt Lake Center
08:21PM 44.9394 -116.6867 297° West 500 575 40,000  Level Seattle Center
08:22PM 45.0131 -116.8522 302° West 500 575 40,000  Level Seattle Center
08:23PM 45.0889 -117.0158 303° West 500 575 40,000 120 Level Seattle Center
08:24PM 45.1642 -117.1806 303° West 500 575 40,300 360 Climbing Seattle Center
08:25PM 45.2383 -117.3442 303° West 498 573 40,800 420 Climbing Seattle Center
08:26PM 45.3164 -117.5158 303° West 497 572 41,200 180 Climbing Seattle Center
08:27PM 45.3889 -117.6803 302° West 496 571 41,200 -60 Level Seattle Center
08:28PM 45.4639 -117.8467 303° West 498 573 41,100  Descending Seattle Center
08:29PM 45.5375 -118.0128 302° West 499 574 41,300 -120 Climbing Seattle Center
08:37PM 46.4098 -119.0042 346° North 513 590 40,000 -180 Descending FlightAware ADS-B (KSLE)
08:38PM 46.4837 -119.0305 346° North 510 587 40,000  Level FlightAware ADS-B (KSLE)
08:39PM 46.6243 -119.0810 346° North 512 589 40,000  Level FlightAware ADS-B (KSLE)
08:40PM 46.7364 -119.1210 346° North 513 590 40,000  Level FlightAware ADS-B
08:40PM 46.7355 -119.1210 346° North 514 592 40,000  Level FlightAware ADS-B (KSLE)
08:40PM 46.8081 -119.1470 346° North 510 587 40,000  Level FlightAware ADS-B
08:40PM 46.7355 -119.1210 346° North 509 586 40,000  Level FlightAware ADS-B (KSLE)
08:41PM 46.8783 -119.1720 346° North 509 586 40,000  Level FlightAware ADS-B
08:41PM 46.9473 -119.1970 346° North 510 587 40,000  Level FlightAware ADS-B
08:42PM 47.0172 -119.2220 346° North 509 586 40,000  Level FlightAware ADS-B
08:42PM 47.0886 -119.2480 346° North 509 586 40,000  Level FlightAware ADS-B
08:43PM 47.1590 -119.2740 346° North 511 588 40,000  Level FlightAware ADS-B
08:43PM 47.2283 -119.2990 346° North 513 590 40,000  Level FlightAware ADS-B
08:44PM 47.3115 -119.3290 346° North 512 589 40,000  Level FlightAware ADS-B
08:44PM 47.3845 -119.3560 346° North 510 587 40,000  Level FlightAware ADS-B
08:45PM 47.4519 -119.3810 346° North 489 563 40,000  Level FlightAware ADS-B
08:45PM 47.5218 -119.4070 345° North 479 551 40,000  Level FlightAware ADS-B
08:46PM 47.5404 -119.4170 337° Northwest 474 545 40,000  Level FlightAware ADS-B
08:46PM 47.5491 -119.4230 332° Northwest 472 543 40,000  Level FlightAware ADS-B
08:46PM 47.5602 -119.4330 326° Northwest 471 542 40,000  Level FlightAware ADS-B
08:46PM 47.5692 -119.4430 322° Northwest 470 541 40,000  Level FlightAware ADS-B
08:46PM 47.5895 -119.4737 305° West 466 536 40,000  Level FlightAware ADS-B (CYVR)
08:46PM 47.6012 -119.5000 302° West 464 534 40,000  Level FlightAware ADS-B
08:46PM 47.6137 -119.5460 286° West 461 531 40,000  Level FlightAware ADS-B
08:47PM 47.6058 -119.5132 283° West 461 531 40,000  Level FlightAware ADS-B (CYVR)
08:47PM 47.6284 -119.6420 283° West 460 529 40,000  Level FlightAware ADS-B
08:47PM 47.6325 -119.6687 283° West 461 531 40,000  Level FlightAware ADS-B (KPFC)
08:47PM 47.6429 -119.7360 283° West 461 531 40,000  Level FlightAware ADS-B
08:48PM 47.6488 -119.7751 283° West 462 532 40,000  Level FlightAware ADS-B (CYWH)
08:48PM 47.6570 -119.8300 283° West 462 532 40,000  Level FlightAware ADS-B
08:48PM 47.6626 -119.8670 283° West 462 532 40,000 -240 Level FlightAware ADS-B (CYVR)
08:48PM 47.6712 -119.9240 283° West 464 534 39,900 -840 Descending FlightAware ADS-B
08:49PM 47.6781 -119.9702 282° West 458 527 39,600 -1,380 Descending FlightAware ADS-B (CYWH)
08:49PM 47.6852 -120.0180 283° West 454 522 39,200 -1,980 Descending FlightAware ADS-B
08:49PM 47.6968 -120.0946 282° West 448 516 38,300 -2,220 Descending FlightAware ADS-B (CYWH)
08:49PM 47.6988 -120.1080 282° West 450 518 38,100 -3,660 Descending FlightAware ADS-B
08:50PM 47.7123 -120.2010 282° West 461 531 36,300 -3,480 Descending FlightAware ADS-B
08:50PM 47.7146 -120.2169 282° West 462 532 35,900 -2,520 Descending FlightAware ADS-B (CYVR)
08:51PM 47.7284 -120.3120 282° West 459 528 34,800 -1,920 Descending FlightAware ADS-B
08:51PM 47.7324 -120.3389 282° West 449 517 34,700 -1,380 Descending FlightAware ADS-B (CYWH)
08:51PM 47.7422 -120.4050 283° West 436 502 34,100 -2,040 Descending FlightAware ADS-B
08:51PM 47.7455 -120.4267 282° West 427 491 33,700 -3,120 Descending FlightAware ADS-B (CYWH)
08:52PM 47.7548 -120.4910 282° West 413 475 32,500 -3,420 Descending FlightAware ADS-B
08:52PM 47.7583 -120.5147 282° West 407 468 32,000 -2,520 Descending FlightAware ADS-B (CYWH)
08:52PM 47.7670 -120.5750 282° West 392 451 31,200 -1,980 Descending FlightAware ADS-B
08:52PM 47.7699 -120.5950 282° West 388 447 31,000 -600 Descending FlightAware ADS-B (CYWH)
08:53PM 47.7786 -120.6560 282° West 399 459 30,900 -1,200 Descending FlightAware ADS-B
08:53PM 47.7849 -120.7036 281° West 407 468 30,200 -3,120 Descending FlightAware ADS-B (CYWH)
08:53PM 47.7900 -120.7420 281° West 423 487 29,300 -4,620 Descending FlightAware ADS-B
08:54PM 47.7968 -120.7934 282° West 440 506 27,600 -5,040 Descending FlightAware ADS-B (CYVR)
08:54PM 47.8020 -120.8300 282° West 436 502 26,800 -3,360 Descending FlightAware ADS-B
08:54PM 47.8122 -120.9028 282° West 439 505 25,600 -2,820 Descending FlightAware ADS-B (CYWH)
08:54PM 47.8144 -120.9190 282° West 440 506 25,400 -600 Descending FlightAware ADS-B
08:55PM 47.8255 -120.9957 283° West 434 499 25,300 -240 Descending FlightAware ADS-B (CYWH)
08:55PM 47.8274 -121.0080 283° West 435 501 25,300 -3,420 Level FlightAware ADS-B
08:55PM 47.8380 -121.0789 282° West 414 476 23,600 -4,260 Descending FlightAware ADS-B (CYWH)
08:55PM 47.8402 -121.0950 282° West 413 475 23,100 -6,420 Descending FlightAware ADS-B
08:56PM 47.8500 -121.1660 281° West 403 464 20,400 -6,540 Descending FlightAware ADS-B
08:56PM 47.8523 -121.1839 280° West 399 459 19,400 -6,840 Descending FlightAware ADS-B (CYWH)
08:56PM 47.8547 -121.2060 278° West 397 457 18,700 -6,540 Descending FlightAware ADS-B
08:56PM 47.8605 -121.2890 276° West 401 461 15,400 -4,680 Descending FlightAware ADS-B
08:57PM 47.8658 -121.3690 276° West 380 437 14,000 -2,700 Descending FlightAware ADS-B
08:57PM 47.8706 -121.4470 276° West 355 409 12,700 -2,520 Descending FlightAware ADS-B
08:58PM 47.8699 -121.4362 275° West 344 396 12,400 -1,560 Descending FlightAware ADS-B (KPAE)
08:58PM 47.8749 -121.5160 275° West 311 358 11,900 -1,500 Descending FlightAware ADS-B
08:58PM 47.8774 -121.5551 275° West 287 330 11,400 -1,440 Descending FlightAware ADS-B (KPAE)
08:58PM 47.8781 -121.5660 275° West 282 325 11,300 -1,200 Descending FlightAware ADS-B
08:59PM 47.8813 -121.6190 275° West 250 288 10,700 -1,440 Descending FlightAware ADS-B
08:59PM 47.8774 -121.5551 275° West 249 287 10,500 -2,880 Descending FlightAware ADS-B (KPAE)
08:59PM 47.8829 -121.6470 275° West 249 287 9,900 -3,000 Descending FlightAware ADS-B
08:59PM 47.8830 -121.6480 275° West 248 285 9,600 -2,760 Descending FlightAware ADS-B (KPAE)
08:59PM 47.8842 -121.6670 275° West 249 287 9,400 -2,400 Descending FlightAware ADS-B
08:59PM 47.8845 -121.6750 273° West 248 285 9,200 -3,000 Descending FlightAware ADS-B
08:59PM 47.8844 -121.6830 267° West 248 285 8,900 -3,000 Descending FlightAware ADS-B
08:59PM 47.8840 -121.6890 264° West 247 284 8,800 -3,000 Descending FlightAware ADS-B
09:00PM 47.8837 -121.6929 263° West 247 284 8,600 -2,400 Descending FlightAware ADS-B (KPAE)
09:00PM 47.8822 -121.7060 260° West 247 284 8,400 -1,440 Descending FlightAware ADS-B
09:00PM 47.8793 -121.7278 259° West 250 288 8,100 -1,140 Descending FlightAware ADS-B (KPAE)
09:00PM 47.8786 -121.7330 259° West 251 289 8,100 -360 Level FlightAware ADS-B
09:00PM 47.8750 -121.7590 258° West 250 288 8,000 -780 Descending FlightAware ADS-B
09:00PM 47.8712 -121.7850 258° West 248 285 7,700 -1,140 Descending FlightAware ADS-B
09:01PM 47.8697 -121.7961 258° West 249 287 7,600 -1,140 Descending FlightAware ADS-B (KPAE)
09:01PM 47.8675 -121.8110 258° West 248 285 7,400 -1,620 Descending FlightAware ADS-B
09:01PM 47.8652 -121.8277 258° West 247 284 7,100 -1,200 Descending FlightAware ADS-B (KPAE)
09:01PM 47.8639 -121.8360 257° West 245 282 7,100 -600 Level FlightAware ADS-B
09:01PM 47.8601 -121.8610 257° West 245 282 6,900 -780 Descending FlightAware ADS-B
09:01PM 47.8605 -121.8586 257° West 245 282 6,900 -1,200 Level FlightAware ADS-B (KPAE)
09:01PM 47.8563 -121.8870 258° West 248 285 6,600 -1,200 Descending FlightAware ADS-B
09:02PM 47.8550 -121.8954 258° West 248 285 6,500 -1,140 Descending FlightAware ADS-B (KPAE)
09:02PM 47.8526 -121.9120 258° West 247 284 6,300 -1,380 Descending FlightAware ADS-B
09:02PM 47.8507 -121.9256 258° West 243 280 6,100 -1,320 Descending FlightAware ADS-B (KPAE)
09:02PM 47.8493 -121.9360 259° West 242 278 6,000 -1,500 Descending FlightAware ADS-B
09:02PM 47.8479 -121.9450 257° West 241 277 5,800 -2,400 Descending FlightAware ADS-B
09:02PM 47.8468 -121.9520 254° West 241 277 5,600 -2,280 Descending FlightAware ADS-B
09:02PM 47.8453 -121.9580 248° West 240 276 5,500 -1,740 Descending FlightAware ADS-B
09:02PM 47.8438 -121.9620 243° Southwest 238 274 5,400 -2,040 Descending FlightAware ADS-B
09:02PM 47.8421 -121.9670 238° Southwest 238 274 5,300 -2,040 Descending FlightAware ADS-B
09:02PM 47.8402 -121.9710 235° Southwest 237 273 5,200 -2,280 Descending FlightAware ADS-B
09:02PM 47.8368 -121.9770 231° Southwest 236 272 5,000 -2,520 Descending FlightAware ADS-B
09:03PM 47.8318 -121.9860 229° Southwest 236 272 4,700 -2,100 Descending FlightAware ADS-B
09:03PM 47.8205 -122.0040 228° Southwest 235 270 4,200 -2,040 Descending FlightAware ADS-B
09:03PM 47.8170 -122.0101 227° Southwest 235 270 4,000 -1,920 Descending FlightAware ADS-B (KPAE)
09:03PM 47.8040 -122.0310 227° Southwest 234 269 3,500 -1,500 Descending FlightAware ADS-B
09:03PM 47.8036 -122.0316 227° Southwest 232 267 3,500 -480 Level FlightAware ADS-B (KPAE)
09:03PM 47.7944 -122.0460 228° Southwest 227 261 3,400 -360 Descending FlightAware ADS-B
09:04PM 47.7898 -122.0540 228° Southwest 224 258 3,400 -900 Level FlightAware ADS-B (KPAE)
09:04PM 47.7808 -122.0690 228° Southwest 223 257 3,100 -840 Descending FlightAware ADS-B
09:04PM 47.7693 -122.0880 228° Southwest 224 258 3,000 -240 Descending FlightAware ADS-B
09:04PM 47.7624 -122.0996 228° Southwest 224 258 3,000  Level FlightAware ADS-B (KPAE)
09:04PM 47.7586 -122.1060 228° Southwest 223 257 3,000  Level FlightAware ADS-B
09:04PM 47.7502 -122.1200 230° Southwest 221 254 3,000  Level FlightAware ADS-B
09:05PM 47.7472 -122.1260 235° Southwest 221 254 3,000  Level FlightAware ADS-B
09:05PM 47.7453 -122.1310 242° Southwest 221 254 3,000  Level FlightAware ADS-B
09:05PM 47.7429 -122.1420 258° West 228 262 3,000  Level FlightAware ADS-B
09:05PM 47.7423 -122.1490 263° West 230 265 3,000  Level FlightAware ADS-B
09:05PM 47.7422 -122.1516 267° West 229 264 3,000  Level FlightAware ADS-B (KPAE)
09:05PM 47.7419 -122.1600 268° West 229 264 3,000  Level FlightAware ADS-B
09:05PM 47.7419 -122.1780 271° West 229 264 3,000  Level FlightAware ADS-B
09:05PM 47.7420 -122.1861 271° West 227 261 3,000  Level FlightAware ADS-B (KPAE)
09:05PM 47.7422 -122.2020 272° West 225 259 3,000  Level FlightAware ADS-B
09:06PM 47.7424 -122.2096 272° West 224 258 3,000  Level FlightAware ADS-B (KPAE)
09:06PM 47.7427 -122.2260 272° West 223 257 3,000  Level FlightAware ADS-B
09:06PM 47.7431 -122.2444 272° West 220 253 3,000  Level FlightAware ADS-B (KPAE)
09:06PM 47.7433 -122.2530 272° West 220 253 3,000  Level FlightAware ADS-B
09:06PM 47.7437 -122.2770 272° West 221 254 3,000  Level FlightAware ADS-B
09:07PM 47.7442 -122.3080 272° West 222 255 3,000  Level FlightAware ADS-B
09:07PM 47.7441 -122.3230 266° West 221 254 3,000  Level FlightAware ADS-B
09:07PM 47.7431 -122.3300 258° West 218 251 3,000 -720 Level FlightAware ADS-B
09:07PM 47.7417 -122.3360 252° West 216 249 2,900 -1,200 Descending FlightAware ADS-B
09:07PM 47.7427 -122.3324 249° West 215 247 2,900 -1,500 Level FlightAware ADS-B (KPAE)
09:07PM 47.7364 -122.3520 240° Southwest 215 247 2,600 -1,140 Descending FlightAware ADS-B
09:07PM 47.7259 -122.3780 239° Southwest 209 241 2,300 -540 Descending FlightAware ADS-B
09:08PM 47.7147 -122.4050 239° Southwest 209 241 2,200 -120 Descending FlightAware ADS-B
09:08PM 47.6930 -122.4250 220° Southwest 184 212 2,200  Level FlightAware ADS-B
09:09PM 47.6807 -122.4220 220° Southwest 184 212 2,200  Level FlightAware ADS-B
09:09PM 47.6744 -122.4210 170° South 171 197 2,200  Level FlightAware ADS-B
09:09PM 47.6645 -122.4160 155° Southeast 176 203 2,200  Level FlightAware ADS-B
09:09PM 47.6494 -122.4040 151° Southeast 181 208 2,200  Level FlightAware ADS-B
09:09PM 47.6411 -122.3970 150° Southeast 183 211 2,200  Level FlightAware ADS-B
09:10PM 47.6322 -122.3890 150° Southeast 174 200 2,200 -480 Level FlightAware ADS-B
09:10PM 47.6222 -122.3800 150° Southeast 168 193 2,000 -900 Descending FlightAware ADS-B
09:10PM 47.6083 -122.3690 150° Southeast 167 192 1,700 -960 Descending FlightAware ADS-B
09:11PM 47.5881 -122.3520 150° Southeast 164 189 1,200 -840 Descending FlightAware ADS-B
09:11PM 47.5708 -122.3375 150° Southeast 154 177 800 -660 Descending Seattle Center
09:12PM 47.5389 -122.3106 150° Southeast 142 163 200 -600 Descending Seattle Center